AirNav   Everest Fuels
 
 881 users online  

6KY6 Jeffries Farm Airport
Louisville, Kentucky, USA

GOING TO LOUISVILLE?


FAA INFORMATION EFFECTIVE 21 MAY 2020

Location

FAA Identifier: 6KY6
Lat/Long: 38-21-35.8900N 085-21-49.1700W
38-21.598167N 085-21.819500W
38.3599694,-85.3636583
(estimated)
Elevation: 803 ft. / 245 m (estimated)
From city: 20 miles NE of LOUISVILLE, KY
Time zone: UTC -4 (UTC -5 during Standard Time)
Zip code: 40068

Airport Operations

Airport use: Private use. Permission required prior to landing
Activation date: 03/2006
Control tower: no
ARTCC: INDIANAPOLIS CENTER
FSS: LOUISVILLE FLIGHT SERVICE STATION
Attendance: UNATNDD
Wind indicator: yes
Segmented circle: no

Airport Communications

WX ASOS at LOU (16 nm SW): PHONE 502-473-0693
WX AWOS-3 at JVY (18 nm W): 118.575 (812-246-1278)

Nearby radio navigation aids

VOR radial/distance  VOR name  Freq  Var
IIUr032/18.4LOUISVILLE VORTAC114.8001E
FFTr299/(23.9)FRANKFORT VOR109.4003W
FTKr048/39.5FORT KNOX VOR/DME109.6001W

 
NDB name  Hdg/Dist  Freq  Var  ID
GODMAN053/37.639603WGOI --. --- ..

Airport Services

Runway Information

Runway 4/22

Dimensions: 1500 x 80 ft. / 457 x 24 m
Surface: turf
RUNWAY 4  RUNWAY 22
Traffic pattern: leftleft

Airport Ownership and Management from official FAA records

Ownership: Privately-owned
Owner: KEVIN JEFFRIES
1503 EAST HIGHWAY 22
CRESTWOOD, KY 40014
Phone 502-222-9877
Manager: KEVIN JEFFRIES
1503 EAST HIGHWAY 22
CRESTWOOD, KY 40014
Phone 502-222-9877

Airport Operational Statistics

Aircraft based on the field: 2
Single engine airplanes: 2
    

Additional Remarks

150 FT WATER TANK 1.5 NM E AND 100 FT MICROWAVE TWR .5 NM NE.
FOR CD CTC LOUISVILLE APCH AT 502-375-7499

Instrument Procedures

There are no published instrument procedures at 6KY6.

Some nearby airports with instrument procedures:

KLOU - Bowman Field Airport (16 nm SW)
KJVY - Clark Regional Airport (18 nm W)
KSDF - Louisville Muhammad Ali International Airport (21 nm SW)
KFFT - Capital City Airport (24 nm SE)
KIMS - Madison Municipal Airport (24 nm N)
 
Loc | Ops | Rwys | IFR | FBO | Links
Com | Nav | Svcs | Stats | Notes
Area around 6KY6 (Jeffries Farm Airport)
 
Road maps at: MapQuest Bing Google
 
Aerial photo
No photo
 
Sectional chart

 
Airport distance calculator
Flying to Jeffries Farm Airport? Find the distance to fly.

From to 6KY6

Sunrise and sunset
Times for 24-May-2020
 Local
(UTC-4)
 Zulu
(UTC)
Morning civil twilight05:5309:53
Sunrise06:2410:24
Sunset20:5300:53
Evening civil twilight21:2301:23

Current date and time
Zulu (UTC)  25-May-2020 02:00:53
Local (UTC-4)  24-May-2020 22:00:53
 
METAR
KLOU 
17nm SW 
250153Z 01007KT 10SM FEW044 BKN060 OVC090 23/18 A3001 RMK AO2 LTG DSNT N SLP157 T02330183
KJVY 
18nm W 
250135Z AUTO 02010KT 5SM +TSRA SCT014 OVC035 21/19 A3001 RMK AO2 LTG DSNT N AND NE P0017 T02130193
KSDF 
20nm SW 
250145Z 02017G26KT 10SM SCT045 BKN130 24/19 A3000 RMK AO2 PK WND 02026/0141 WSHFT 0130 LTG DSNT N T02390194
KFFT 
24nm SE 
250153Z AUTO 05006KT 10SM BKN055 BKN070 24/19 A3001 RMK AO2 SLPNO T02390189
KIMS 
24nm N 
250136Z AUTO 20005KT 7SM SCT036 BKN046 BKN065 20/19 A3005 RMK AO1
TAF
KSDF 
20nm SW 
250022Z 2500/2606 VRB08KT P6SM VCTS SCT050CB FM250200 VRB04KT P6SM BKN250 FM251700 17007KT P6SM BKN250 PROB30 2518/2524 5SM -TSRA BKN035CB FM260100 VRB03KT P6SM SCT250
NOTAMs
Click for the latest NOTAMs
NOTAMs are issued by the DoD/FAA and will open in a separate window not controlled by AirNav.

 

 
 

Would you like to see your business listed on this page?

 If your business provides an interesting product or service to pilots, flight crews, aircraft, or users of the Jeffries Farm Airport, you should consider listing it here.  To start the listing process, click on the button below
 
Add a business
 

Other Pages about Jeffries Farm Airport

Update a link
 
Copyright © AirNav, LLC. All rights reserved. Privacy Policy  Contact